ANA583 RJOA-RJFF
Flight info
| Callsign | ANA583 |
|---|---|
| Flight time | 0h 31m |
| Altitude | 28000 |
| Route | MARCO Y256 STOUT Y20 KIRIN |
| Aircraft | B789/H-SDE1E2E3FGHIJ2J3J4J5M1RWXY/LB1D1 |
Departure
| Time | 2026-05-07 16:12 |
|---|---|
| Airport | Hiroshima Airport (RJOA) |
Arrival
| Time | 2026-05-07 16:43 |
|---|---|
| Airport | Fukuoka Airport (RJFF) |
| Time | Latitude | Longitude | Altitude | Speed | Heading |
|---|---|---|---|---|---|
| 2026-05-07 16:00 | 34.43884 | 132.91858 | 1086 ft | 0 kts | 360° |
| 2026-05-07 16:05 | 34.43862 | 132.91858 | 1087 ft | 4 kts | 360° |
| 2026-05-07 16:05 | 34.43840 | 132.91858 | 1089 ft | 4 kts | 3° |
| 2026-05-07 16:05 | 34.43814 | 132.91854 | 1090 ft | 4 kts | 16° |
| 2026-05-07 16:06 | 34.43789 | 132.91842 | 1090 ft | 4 kts | 29° |
| 2026-05-07 16:06 | 34.43767 | 132.91824 | 1092 ft | 4 kts | 40° |
| 2026-05-07 16:06 | 34.43757 | 132.91814 | 1092 ft | 1 kts | 41° |
| 2026-05-07 16:06 | 34.43757 | 132.91813 | 1092 ft | 0 kts | 41° |
| 2026-05-07 16:07 | 34.43757 | 132.91814 | 1092 ft | 1 kts | 41° |
| 2026-05-07 16:08 | 34.43760 | 132.91818 | 1092 ft | 3 kts | 51° |
| 2026-05-07 16:09 | 34.43772 | 132.91884 | 1092 ft | 14 kts | 87° |
| 2026-05-07 16:09 | 34.43772 | 132.92011 | 1092 ft | 16 kts | 90° |
| 2026-05-07 16:09 | 34.43772 | 132.92145 | 1095 ft | 17 kts | 90° |
| 2026-05-07 16:09 | 34.43771 | 132.92290 | 1096 ft | 17 kts | 90° |
| 2026-05-07 16:10 | 34.43771 | 132.92454 | 1096 ft | 22 kts | 90° |
| 2026-05-07 16:10 | 34.43770 | 132.92643 | 1099 ft | 26 kts | 90° |
| 2026-05-07 16:10 | 34.43771 | 132.92899 | 1096 ft | 32 kts | 90° |
| 2026-05-07 16:10 | 34.43772 | 132.93170 | 1095 ft | 32 kts | 90° |
| 2026-05-07 16:11 | 34.43772 | 132.93444 | 1089 ft | 30 kts | 93° |
| 2026-05-07 16:11 | 34.43690 | 132.93551 | 1092 ft | 16 kts | 175° |
| 2026-05-07 16:11 | 34.43610 | 132.93490 | 1095 ft | 18 kts | 249° |
| 2026-05-07 16:11 | 34.43600 | 132.93206 | 1093 ft | 65 kts | 270° |
| 2026-05-07 16:12 | 34.43600 | 132.92316 | 1096 ft | 145 kts | 270° |
| 2026-05-07 16:12 | 34.43586 | 132.90859 | 1220 ft | 191 kts | 265° |
| 2026-05-07 16:12 | 34.43547 | 132.89264 | 1890 ft | 189 kts | 265° |
| 2026-05-07 16:12 | 34.43391 | 132.87628 | 2286 ft | 203 kts | 259° |
| 2026-05-07 16:13 | 34.43172 | 132.85857 | 2598 ft | 224 kts | 260° |
| 2026-05-07 16:13 | 34.42957 | 132.83921 | 3074 ft | 240 kts | 260° |
| 2026-05-07 16:13 | 34.42727 | 132.81891 | 3669 ft | 244 kts | 258° |
| 2026-05-07 16:13 | 34.42066 | 132.80015 | 4226 ft | 244 kts | 236° |
| 2026-05-07 16:14 | 34.41120 | 132.78350 | 5151 ft | 239 kts | 234° |
| 2026-05-07 16:14 | 34.40155 | 132.76717 | 5881 ft | 244 kts | 234° |
| 2026-05-07 16:14 | 34.39167 | 132.75028 | 6654 ft | 247 kts | 234° |
| 2026-05-07 16:14 | 34.38175 | 132.73314 | 7367 ft | 250 kts | 235° |
| 2026-05-07 16:15 | 34.37169 | 132.71578 | 8105 ft | 253 kts | 235° |
| 2026-05-07 16:15 | 34.36146 | 132.69816 | 8766 ft | 261 kts | 236° |
| 2026-05-07 16:15 | 34.35070 | 132.67964 | 9181 ft | 277 kts | 236° |
| 2026-05-07 16:15 | 34.33932 | 132.66006 | 9644 ft | 292 kts | 236° |
| 2026-05-07 16:16 | 34.32733 | 132.63946 | 10072 ft | 307 kts | 236° |
| 2026-05-07 16:16 | 34.31473 | 132.61784 | 10465 ft | 322 kts | 236° |
| 2026-05-07 16:16 | 34.30153 | 132.59519 | 10870 ft | 336 kts | 236° |
| 2026-05-07 16:16 | 34.28776 | 132.57156 | 11233 ft | 351 kts | 236° |
| 2026-05-07 16:17 | 34.27337 | 132.54691 | 11544 ft | 366 kts | 236° |
| 2026-05-07 16:17 | 34.25849 | 132.52143 | 12056 ft | 374 kts | 236° |
| 2026-05-07 16:17 | 34.24341 | 132.49563 | 12734 ft | 377 kts | 236° |
| 2026-05-07 16:17 | 34.22822 | 132.46960 | 13409 ft | 380 kts | 236° |
| 2026-05-07 16:18 | 34.21497 | 132.44186 | 13963 ft | 383 kts | 244° |
| 2026-05-07 16:18 | 34.20225 | 132.41339 | 14497 ft | 387 kts | 240° |
| 2026-05-07 16:18 | 34.18876 | 132.38523 | 15132 ft | 388 kts | 240° |
| 2026-05-07 16:18 | 34.17548 | 132.35672 | 15710 ft | 391 kts | 241° |
| 2026-05-07 16:19 | 34.16247 | 132.32779 | 16297 ft | 393 kts | 241° |
| 2026-05-07 16:19 | 34.14931 | 132.29879 | 16864 ft | 395 kts | 240° |
| 2026-05-07 16:19 | 34.13586 | 132.26973 | 17405 ft | 398 kts | 240° |
| 2026-05-07 16:19 | 34.12234 | 132.24052 | 17984 ft | 400 kts | 240° |
| 2026-05-07 16:20 | 34.10899 | 132.21146 | 18449 ft | 402 kts | 240° |
| 2026-05-07 16:20 | 34.09681 | 132.18100 | 18780 ft | 406 kts | 248° |
| 2026-05-07 16:20 | 34.08881 | 132.14829 | 19212 ft | 408 kts | 255° |
| 2026-05-07 16:20 | 34.08528 | 132.11404 | 19594 ft | 415 kts | 263° |
| 2026-05-07 16:21 | 34.08639 | 132.07895 | 19980 ft | 422 kts | 272° |
| 2026-05-07 16:21 | 34.09004 | 132.04374 | 20390 ft | 425 kts | 273° |
| 2026-05-07 16:21 | 34.09373 | 132.00828 | 20809 ft | 427 kts | 273° |
| 2026-05-07 16:21 | 34.09739 | 131.97260 | 21206 ft | 430 kts | 273° |
| 2026-05-07 16:22 | 34.10099 | 131.93677 | 21628 ft | 431 kts | 273° |
| 2026-05-07 16:22 | 34.10461 | 131.90074 | 22005 ft | 434 kts | 274° |
| 2026-05-07 16:22 | 34.10829 | 131.86445 | 22362 ft | 437 kts | 274° |
| 2026-05-07 16:22 | 34.11198 | 131.82794 | 22675 ft | 440 kts | 274° |
| 2026-05-07 16:23 | 34.11567 | 131.79115 | 23025 ft | 443 kts | 274° |
| 2026-05-07 16:23 | 34.11935 | 131.75413 | 23302 ft | 447 kts | 273° |
| 2026-05-07 16:23 | 34.12308 | 131.71669 | 23526 ft | 451 kts | 273° |
| 2026-05-07 16:23 | 34.12684 | 131.67906 | 23801 ft | 453 kts | 273° |
| 2026-05-07 16:24 | 34.13058 | 131.64122 | 24084 ft | 455 kts | 273° |
| 2026-05-07 16:24 | 34.13307 | 131.61601 | 24172 ft | 459 kts | 273° |
| 2026-05-07 16:24 | 34.13685 | 131.57725 | 24166 ft | 471 kts | 273° |
| 2026-05-07 16:24 | 34.14075 | 131.53747 | 24200 ft | 483 kts | 273° |
| 2026-05-07 16:25 | 34.14474 | 131.49701 | 24218 ft | 483 kts | 274° |
| 2026-05-07 16:25 | 34.14865 | 131.45765 | 23944 ft | 462 kts | 273° |
| 2026-05-07 16:25 | 34.15236 | 131.41939 | 23249 ft | 454 kts | 273° |
| 2026-05-07 16:25 | 34.15592 | 131.38220 | 22849 ft | 435 kts | 273° |
| 2026-05-07 16:26 | 34.15933 | 131.34709 | 22965 ft | 408 kts | 273° |
| 2026-05-07 16:26 | 34.16255 | 131.31397 | 22958 ft | 386 kts | 273° |
| 2026-05-07 16:26 | 34.16555 | 131.28250 | 22955 ft | 369 kts | 272° |
| 2026-05-07 16:26 | 34.16844 | 131.25180 | 22769 ft | 373 kts | 272° |
| 2026-05-07 16:27 | 34.17139 | 131.22047 | 22130 ft | 374 kts | 272° |
| 2026-05-07 16:27 | 34.17439 | 131.18948 | 21564 ft | 369 kts | 272° |
| 2026-05-07 16:27 | 34.17731 | 131.15895 | 21009 ft | 365 kts | 272° |
| 2026-05-07 16:27 | 34.18017 | 131.12853 | 20464 ft | 364 kts | 272° |
| 2026-05-07 16:28 | 34.18229 | 131.09823 | 19670 ft | 355 kts | 266° |
| 2026-05-07 16:28 | 34.17819 | 131.06854 | 18547 ft | 365 kts | 252° |
| 2026-05-07 16:28 | 34.16940 | 131.03964 | 17294 ft | 370 kts | 245° |
| 2026-05-07 16:28 | 34.15748 | 131.01204 | 16059 ft | 363 kts | 242° |
| 2026-05-07 16:29 | 34.14575 | 130.98509 | 14911 ft | 365 kts | 244° |
| 2026-05-07 16:29 | 34.13487 | 130.95725 | 13837 ft | 369 kts | 246° |
| 2026-05-07 16:29 | 34.12420 | 130.92919 | 12881 ft | 366 kts | 245° |
| 2026-05-07 16:29 | 34.11325 | 130.90177 | 12155 ft | 359 kts | 245° |
| 2026-05-07 16:30 | 34.10246 | 130.87532 | 11509 ft | 339 kts | 245° |
| 2026-05-07 16:30 | 34.09266 | 130.85085 | 11003 ft | 309 kts | 245° |
| 2026-05-07 16:30 | 34.08386 | 130.82874 | 10785 ft | 277 kts | 245° |
| 2026-05-07 16:30 | 34.07573 | 130.80835 | 10634 ft | 263 kts | 245° |
| 2026-05-07 16:31 | 34.06798 | 130.78898 | 10464 ft | 250 kts | 246° |
| 2026-05-07 16:31 | 34.06051 | 130.77035 | 10344 ft | 246 kts | 246° |
| 2026-05-07 16:31 | 34.05299 | 130.75156 | 10242 ft | 251 kts | 246° |
| 2026-05-07 16:31 | 34.04536 | 130.73251 | 10152 ft | 253 kts | 246° |
| 2026-05-07 16:32 | 34.03772 | 130.71351 | 9950 ft | 248 kts | 246° |
| 2026-05-07 16:32 | 34.03023 | 130.69487 | 9724 ft | 248 kts | 246° |
| 2026-05-07 16:32 | 34.02267 | 130.67601 | 9496 ft | 251 kts | 246° |
| 2026-05-07 16:32 | 34.01505 | 130.65703 | 9269 ft | 250 kts | 245° |
| 2026-05-07 16:33 | 34.00756 | 130.63845 | 9032 ft | 245 kts | 245° |
| 2026-05-07 16:33 | 34.00010 | 130.61990 | 8798 ft | 248 kts | 245° |
| 2026-05-07 16:33 | 33.99255 | 130.60118 | 8576 ft | 249 kts | 245° |
| 2026-05-07 16:33 | 33.98265 | 130.58416 | 8309 ft | 248 kts | 231° |
| 2026-05-07 16:34 | 33.97193 | 130.56828 | 8086 ft | 244 kts | 234° |
| 2026-05-07 16:34 | 33.96153 | 130.55199 | 7867 ft | 247 kts | 234° |
| 2026-05-07 16:34 | 33.95094 | 130.53567 | 7644 ft | 246 kts | 233° |
| 2026-05-07 16:34 | 33.94047 | 130.51979 | 7409 ft | 242 kts | 233° |
| 2026-05-07 16:35 | 33.92994 | 130.50378 | 7189 ft | 245 kts | 233° |
| 2026-05-07 16:35 | 33.91937 | 130.48768 | 6965 ft | 245 kts | 233° |
| 2026-05-07 16:35 | 33.90898 | 130.47184 | 6727 ft | 239 kts | 232° |
| 2026-05-07 16:35 | 33.89860 | 130.45605 | 6506 ft | 242 kts | 232° |
| 2026-05-07 16:36 | 33.88812 | 130.44011 | 6275 ft | 243 kts | 232° |
| 2026-05-07 16:36 | 33.87783 | 130.42446 | 6025 ft | 238 kts | 232° |
| 2026-05-07 16:36 | 33.86747 | 130.40871 | 5778 ft | 237 kts | 232° |
| 2026-05-07 16:36 | 33.85731 | 130.39328 | 5547 ft | 239 kts | 232° |
| 2026-05-07 16:37 | 33.84686 | 130.37742 | 5296 ft | 236 kts | 232° |
| 2026-05-07 16:37 | 33.83692 | 130.36233 | 5055 ft | 233 kts | 232° |
| 2026-05-07 16:37 | 33.82675 | 130.34689 | 4835 ft | 237 kts | 231° |
| 2026-05-07 16:37 | 33.81619 | 130.33176 | 4574 ft | 236 kts | 224° |
| 2026-05-07 16:38 | 33.80197 | 130.32199 | 4270 ft | 234 kts | 202° |
| 2026-05-07 16:38 | 33.78580 | 130.32009 | 3915 ft | 240 kts | 174° |
| 2026-05-07 16:38 | 33.76997 | 130.32549 | 3657 ft | 235 kts | 163° |
| 2026-05-07 16:38 | 33.75543 | 130.33448 | 3387 ft | 235 kts | 154° |
| 2026-05-07 16:39 | 33.74146 | 130.34434 | 3187 ft | 227 kts | 154° |
| 2026-05-07 16:39 | 33.72791 | 130.35367 | 2985 ft | 221 kts | 155° |
| 2026-05-07 16:39 | 33.71525 | 130.36240 | 2700 ft | 197 kts | 155° |
| 2026-05-07 16:39 | 33.70388 | 130.37023 | 2444 ft | 181 kts | 155° |
| 2026-05-07 16:40 | 33.69349 | 130.37738 | 2210 ft | 162 kts | 155° |
| 2026-05-07 16:40 | 33.68429 | 130.38362 | 1997 ft | 144 kts | 156° |
| 2026-05-07 16:40 | 33.67574 | 130.38944 | 1810 ft | 140 kts | 155° |
| 2026-05-07 16:40 | 33.66725 | 130.39525 | 1645 ft | 141 kts | 153° |
| 2026-05-07 16:41 | 33.65879 | 130.40118 | 1457 ft | 141 kts | 153° |
| 2026-05-07 16:41 | 33.65026 | 130.40711 | 1248 ft | 142 kts | 153° |
| 2026-05-07 16:41 | 33.64169 | 130.41296 | 1061 ft | 142 kts | 153° |
| 2026-05-07 16:41 | 33.63316 | 130.41882 | 865 ft | 140 kts | 152° |
| 2026-05-07 16:42 | 33.62472 | 130.42459 | 681 ft | 139 kts | 152° |
| 2026-05-07 16:42 | 33.61629 | 130.43018 | 502 ft | 138 kts | 152° |
| 2026-05-07 16:42 | 33.60795 | 130.43583 | 302 ft | 138 kts | 152° |
| 2026-05-07 16:42 | 33.59965 | 130.44138 | 105 ft | 135 kts | 152° |
| 2026-05-07 16:43 | 33.59159 | 130.44684 | 33 ft | 125 kts | 151° |
| 2026-05-07 16:43 | 33.58555 | 130.45093 | 43 ft | 67 kts | 150° |
| 2026-05-07 16:43 | 33.58283 | 130.45279 | 41 ft | 36 kts | 150° |
| 2026-05-07 16:43 | 33.58142 | 130.45415 | 43 ft | 19 kts | 128° |
| 2026-05-07 16:44 | 33.58075 | 130.45544 | 44 ft | 17 kts | 100° |
| 2026-05-07 16:44 | 33.58093 | 130.45595 | 43 ft | 5 kts | 37° |
| 2026-05-07 16:44 | 33.58136 | 130.45602 | 42 ft | 9 kts | 346° |
| 2026-05-07 16:44 | 33.58199 | 130.45567 | 40 ft | 11 kts | 327° |
| 2026-05-07 16:45 | 33.58274 | 130.45513 | 39 ft | 14 kts | 330° |
| 2026-05-07 16:45 | 33.58369 | 130.45449 | 37 ft | 16 kts | 330° |
| 2026-05-07 16:45 | 33.58468 | 130.45382 | 40 ft | 17 kts | 330° |
| 2026-05-07 16:45 | 33.58567 | 130.45314 | 40 ft | 11 kts | 337° |
| 2026-05-07 16:46 | 33.58611 | 130.45327 | 37 ft | 7 kts | 31° |
| 2026-05-07 16:46 | 33.58644 | 130.45350 | 37 ft | 0 kts | 31° |